Accueil
METAR-TAF:

METAR-TAF

Aéroports :

Base aérienne 118 Mont-de-Marsan

Mont-De-Marsan, France

latitude: 43-55N, longitude: 000-30W, altitude: 62 m

Observation

Le bulletin a été fait il y a 35 minutes, à 16:30 UTC
Vent 6 kt de nord, variant entre nord/nord-ouest et nord-est
Température 22°C
Humidité 27%
Pression 1023 hPa
Visibilité 10 km ou plus
pas de nuages en-dessous de 1500 mètres et pas de cumulonimbus.

METAR: LFBM 241630Z AUTO 01006KT 340V050 CAVOK 22/02 Q1023 NOSIG

Heure: 18:05 (17:05 UTC)

Prévision

Le bulletin a été fait il y a 3 heures et 5 minutes, à 14:00 UTC
Prévision valable du 24 à 15 UTC au 25 à 15 UTC
Vent 6 kt de nord-est
Visibilité 10 km ou plus
pas de nuages en-dessous de 1500 mètres et pas de cumulonimbus.

TAF: LFBM 241400Z 2415/2515 04006KT CAVOK

Observations et prévisions météorologiques de plus de 4000 aéroports (messages METAR et TAF).

Les stations disponibles sont représentées par des disques jaunes et rouges sur la carte.

Passer la souris dessus pour voir le nom de la station.

Cliquer dessus pour voir les observations et prévisions météorologiques.

Pour changer de carte: cliquez sur les boutons verts avec une croix noire pour zoomer, sur le bouton vert avec un tiret pour effectuer un zoom arrière, ou sur les flèches vertes pour les cartes adjacentes.


METAR-TAF: